sensor_id;sensor_type;location;lat;lon;timestamp;temperature;humidity
44229;DHT22;29904;51.058;5.378;2022-08-27T00:01:31;17.00;99.90
44229;DHT22;29904;51.058;5.378;2022-08-27T00:03:57;17.00;99.90
44229;DHT22;29904;51.058;5.378;2022-08-27T00:06:25;16.90;99.90
44229;DHT22;29904;51.058;5.378;2022-08-27T00:08:52;16.90;99.90
44229;DHT22;29904;51.058;5.378;2022-08-27T00:11:19;16.90;99.90
44229;DHT22;29904;51.058;5.378;2022-08-27T00:13:48;16.90;99.90
44229;DHT22;29904;51.058;5.378;2022-08-27T00:16:15;16.90;99.90
44229;DHT22;29904;51.058;5.378;2022-08-27T00:18:43;16.80;99.90
44229;DHT22;29904;51.058;5.378;2022-08-27T00:21:12;16.80;99.90
44229;DHT22;29904;51.058;5.378;2022-08-27T00:23:40;16.80;99.90
44229;DHT22;29904;51.058;5.378;2022-08-27T00:26:07;16.70;99.90
44229;DHT22;29904;51.058;5.378;2022-08-27T00:28:33;16.70;99.90
44229;DHT22;29904;51.058;5.378;2022-08-27T00:30:59;16.60;99.90
44229;DHT22;29904;51.058;5.378;2022-08-27T00:33:26;16.60;99.90
44229;DHT22;29904;51.058;5.378;2022-08-27T00:35:52;16.60;99.90
44229;DHT22;29904;51.058;5.378;2022-08-27T00:38:24;16.50;99.90
44229;DHT22;29904;51.058;5.378;2022-08-27T00:40:52;16.40;99.90
44229;DHT22;29904;51.058;5.378;2022-08-27T00:43:27;16.40;99.90
44229;DHT22;29904;51.058;5.378;2022-08-27T00:48:40;16.30;99.90
44229;DHT22;29904;51.058;5.378;2022-08-27T00:51:06;16.20;99.90
44229;DHT22;29904;51.058;5.378;2022-08-27T00:53:32;16.20;99.90
44229;DHT22;29904;51.058;5.378;2022-08-27T00:56:14;16.10;99.90
44229;DHT22;29904;51.058;5.378;2022-08-27T00:58:46;16.10;99.90
44229;DHT22;29904;51.058;5.378;2022-08-27T01:01:18;16.00;99.90
44229;DHT22;29904;51.058;5.378;2022-08-27T01:03:47;16.00;99.90
44229;DHT22;29904;51.058;5.378;2022-08-27T01:06:16;15.90;99.90
44229;DHT22;29904;51.058;5.378;2022-08-27T01:08:47;15.80;99.90
44229;DHT22;29904;51.058;5.378;2022-08-27T01:11:15;15.80;99.90
44229;DHT22;29904;51.058;5.378;2022-08-27T01:13:42;15.70;99.90
44229;DHT22;29904;51.058;5.378;2022-08-27T01:16:09;15.70;99.90
44229;DHT22;29904;51.058;5.378;2022-08-27T01:18:38;15.60;99.90
44229;DHT22;29904;51.058;5.378;2022-08-27T01:21:27;15.60;99.90
44229;DHT22;29904;51.058;5.378;2022-08-27T01:24:05;15.50;99.90
44229;DHT22;29904;51.058;5.378;2022-08-27T01:26:34;15.40;99.90
44229;DHT22;29904;51.058;5.378;2022-08-27T01:29:01;15.40;99.90
44229;DHT22;29904;51.058;5.378;2022-08-27T01:31:27;15.40;99.90
44229;DHT22;29904;51.058;5.378;2022-08-27T01:34:01;15.40;99.90
44229;DHT22;29904;51.058;5.378;2022-08-27T01:36:28;15.30;99.90
44229;DHT22;29904;51.058;5.378;2022-08-27T01:38:54;15.30;99.90
44229;DHT22;29904;51.058;5.378;2022-08-27T01:41:22;15.20;99.90
44229;DHT22;29904;51.058;5.378;2022-08-27T01:43:49;15.20;99.90
44229;DHT22;29904;51.058;5.378;2022-08-27T01:46:22;15.20;99.90
44229;DHT22;29904;51.058;5.378;2022-08-27T01:48:48;15.20;99.90
44229;DHT22;29904;51.058;5.378;2022-08-27T01:51:16;15.10;99.90
44229;DHT22;29904;51.058;5.378;2022-08-27T01:53:42;15.10;99.90
44229;DHT22;29904;51.058;5.378;2022-08-27T01:56:07;15.00;99.90
44229;DHT22;29904;51.058;5.378;2022-08-27T01:58:33;15.00;99.90
44229;DHT22;29904;51.058;5.378;2022-08-27T02:01:06;15.00;99.90
44229;DHT22;29904;51.058;5.378;2022-08-27T02:03:34;14.90;99.90
44229;DHT22;29904;51.058;5.378;2022-08-27T02:06:04;14.90;99.90
44229;DHT22;29904;51.058;5.378;2022-08-27T02:08:31;14.80;99.90
44229;DHT22;29904;51.058;5.378;2022-08-27T02:10:59;14.80;99.90
44229;DHT22;29904;51.058;5.378;2022-08-27T02:13:26;14.70;99.90
44229;DHT22;29904;51.058;5.378;2022-08-27T02:15:52;14.70;99.90
44229;DHT22;29904;51.058;5.378;2022-08-27T02:18:18;14.70;99.90
44229;DHT22;29904;51.058;5.378;2022-08-27T02:20:45;14.60;99.90
44229;DHT22;29904;51.058;5.378;2022-08-27T02:23:11;14.60;99.90
44229;DHT22;29904;51.058;5.378;2022-08-27T02:25:37;14.60;99.90
44229;DHT22;29904;51.058;5.378;2022-08-27T02:28:06;14.50;99.90
44229;DHT22;29904;51.058;5.378;2022-08-27T02:30:34;14.50;99.90
44229;DHT22;29904;51.058;5.378;2022-08-27T02:33:01;14.50;99.90
44229;DHT22;29904;51.058;5.378;2022-08-27T02:35:29;14.40;99.90
44229;DHT22;29904;51.058;5.378;2022-08-27T02:37:55;14.40;99.90
44229;DHT22;29904;51.058;5.378;2022-08-27T02:40:22;14.40;99.90
44229;DHT22;29904;51.058;5.378;2022-08-27T02:42:48;14.40;99.90
44229;DHT22;29904;51.058;5.378;2022-08-27T02:45:15;14.30;99.90
44229;DHT22;29904;51.058;5.378;2022-08-27T02:47:41;14.30;99.90
44229;DHT22;29904;51.058;5.378;2022-08-27T02:50:08;14.30;99.90
44229;DHT22;29904;51.058;5.378;2022-08-27T02:52:34;14.20;99.90
44229;DHT22;29904;51.058;5.378;2022-08-27T02:55:02;14.20;99.90
44229;DHT22;29904;51.058;5.378;2022-08-27T02:57:28;14.20;99.90
44229;DHT22;29904;51.058;5.378;2022-08-27T02:59:56;14.20;99.90
44229;DHT22;29904;51.058;5.378;2022-08-27T03:02:22;14.20;99.90
44229;DHT22;29904;51.058;5.378;2022-08-27T03:04:50;14.20;99.90
44229;DHT22;29904;51.058;5.378;2022-08-27T03:07:15;14.10;99.90
44229;DHT22;29904;51.058;5.378;2022-08-27T03:09:41;14.10;99.90
44229;DHT22;29904;51.058;5.378;2022-08-27T03:12:07;14.10;99.90
44229;DHT22;29904;51.058;5.378;2022-08-27T03:14:33;14.10;99.90
44229;DHT22;29904;51.058;5.378;2022-08-27T03:16:59;14.00;99.90
44229;DHT22;29904;51.058;5.378;2022-08-27T03:19:45;14.00;99.90
44229;DHT22;29904;51.058;5.378;2022-08-27T03:22:11;14.00;99.90
44229;DHT22;29904;51.058;5.378;2022-08-27T03:24:37;14.00;99.90
44229;DHT22;29904;51.058;5.378;2022-08-27T03:27:06;14.00;99.90
44229;DHT22;29904;51.058;5.378;2022-08-27T03:29:31;14.00;99.90
44229;DHT22;29904;51.058;5.378;2022-08-27T03:31:59;14.00;99.90
44229;DHT22;29904;51.058;5.378;2022-08-27T03:34:27;14.00;99.90
44229;DHT22;29904;51.058;5.378;2022-08-27T03:36:55;14.10;99.90
44229;DHT22;29904;51.058;5.378;2022-08-27T03:39:21;14.10;99.90
44229;DHT22;29904;51.058;5.378;2022-08-27T03:41:47;14.20;99.90
44229;DHT22;29904;51.058;5.378;2022-08-27T03:44:14;14.20;99.90
44229;DHT22;29904;51.058;5.378;2022-08-27T03:46:40;14.30;99.90
44229;DHT22;29904;51.058;5.378;2022-08-27T03:49:06;14.40;99.90
44229;DHT22;29904;51.058;5.378;2022-08-27T03:51:31;14.50;99.90
44229;DHT22;29904;51.058;5.378;2022-08-27T03:53:57;14.60;99.90
44229;DHT22;29904;51.058;5.378;2022-08-27T03:56:23;14.60;99.90
44229;DHT22;29904;51.058;5.378;2022-08-27T03:58:49;14.60;99.90
44229;DHT22;29904;51.058;5.378;2022-08-27T04:01:17;14.70;99.90
44229;DHT22;29904;51.058;5.378;2022-08-27T04:03:43;14.70;99.90
44229;DHT22;29904;51.058;5.378;2022-08-27T04:06:09;14.80;99.90
44229;DHT22;29904;51.058;5.378;2022-08-27T04:08:36;14.90;99.90
44229;DHT22;29904;51.058;5.378;2022-08-27T04:11:06;14.90;99.90
44229;DHT22;29904;51.058;5.378;2022-08-27T04:13:32;14.90;99.90
44229;DHT22;29904;51.058;5.378;2022-08-27T04:15:59;15.00;99.90
44229;DHT22;29904;51.058;5.378;2022-08-27T04:18:25;14.90;99.90
44229;DHT22;29904;51.058;5.378;2022-08-27T04:20:51;15.00;99.90
44229;DHT22;29904;51.058;5.378;2022-08-27T04:23:17;15.00;99.90
44229;DHT22;29904;51.058;5.378;2022-08-27T04:25:44;15.00;99.90
44229;DHT22;29904;51.058;5.378;2022-08-27T04:28:11;15.00;99.90
44229;DHT22;29904;51.058;5.378;2022-08-27T04:30:38;15.10;99.90
44229;DHT22;29904;51.058;5.378;2022-08-27T04:33:06;15.10;99.90
44229;DHT22;29904;51.058;5.378;2022-08-27T04:35:32;15.20;99.90
44229;DHT22;29904;51.058;5.378;2022-08-27T04:37:58;15.20;99.90
44229;DHT22;29904;51.058;5.378;2022-08-27T04:40:24;15.20;99.90
44229;DHT22;29904;51.058;5.378;2022-08-27T04:43:13;15.20;99.90
44229;DHT22;29904;51.058;5.378;2022-08-27T04:45:45;15.20;99.90
44229;DHT22;29904;51.058;5.378;2022-08-27T04:48:12;15.20;99.90
44229;DHT22;29904;51.058;5.378;2022-08-27T04:50:43;15.20;99.90
44229;DHT22;29904;51.058;5.378;2022-08-27T04:53:10;15.20;99.90
44229;DHT22;29904;51.058;5.378;2022-08-27T04:55:41;15.20;99.90
44229;DHT22;29904;51.058;5.378;2022-08-27T04:58:09;15.20;99.90
44229;DHT22;29904;51.058;5.378;2022-08-27T05:00:43;15.30;99.90
44229;DHT22;29904;51.058;5.378;2022-08-27T05:03:09;15.30;99.90
44229;DHT22;29904;51.058;5.378;2022-08-27T05:05:37;15.40;99.90
44229;DHT22;29904;51.058;5.378;2022-08-27T05:08:03;15.40;99.90
44229;DHT22;29904;51.058;5.378;2022-08-27T05:10:37;15.50;99.90
44229;DHT22;29904;51.058;5.378;2022-08-27T05:13:09;15.40;99.90
44229;DHT22;29904;51.058;5.378;2022-08-27T05:15:37;15.60;99.90
44229;DHT22;29904;51.058;5.378;2022-08-27T05:18:04;15.60;99.90
44229;DHT22;29904;51.058;5.378;2022-08-27T05:20:31;15.50;99.90
44229;DHT22;29904;51.058;5.378;2022-08-27T05:22:59;15.60;99.90
44229;DHT22;29904;51.058;5.378;2022-08-27T05:25:26;15.60;99.90
44229;DHT22;29904;51.058;5.378;2022-08-27T05:27:52;15.60;99.90
44229;DHT22;29904;51.058;5.378;2022-08-27T05:30:18;15.70;99.90
44229;DHT22;29904;51.058;5.378;2022-08-27T05:32:44;15.80;99.90
44229;DHT22;29904;51.058;5.378;2022-08-27T05:35:10;15.80;99.90
44229;DHT22;29904;51.058;5.378;2022-08-27T05:37:36;15.90;99.90
44229;DHT22;29904;51.058;5.378;2022-08-27T05:40:03;16.00;99.90
44229;DHT22;29904;51.058;5.378;2022-08-27T05:42:30;16.00;99.90
44229;DHT22;29904;51.058;5.378;2022-08-27T05:44:56;16.10;99.90
44229;DHT22;29904;51.058;5.378;2022-08-27T05:47:24;16.10;99.90
44229;DHT22;29904;51.058;5.378;2022-08-27T05:49:53;16.20;99.90
44229;DHT22;29904;51.058;5.378;2022-08-27T05:52:19;16.20;99.90
44229;DHT22;29904;51.058;5.378;2022-08-27T05:54:48;16.30;99.90
44229;DHT22;29904;51.058;5.378;2022-08-27T05:57:14;16.30;99.90
44229;DHT22;29904;51.058;5.378;2022-08-27T05:59:39;16.30;99.90
44229;DHT22;29904;51.058;5.378;2022-08-27T06:02:23;16.40;99.90
44229;DHT22;29904;51.058;5.378;2022-08-27T06:04:49;16.30;99.90
44229;DHT22;29904;51.058;5.378;2022-08-27T06:07:15;16.30;99.90
44229;DHT22;29904;51.058;5.378;2022-08-27T06:09:43;16.30;99.90
44229;DHT22;29904;51.058;5.378;2022-08-27T06:12:11;16.30;99.90
44229;DHT22;29904;51.058;5.378;2022-08-27T06:14:37;16.40;99.90
44229;DHT22;29904;51.058;5.378;2022-08-27T06:17:03;16.40;99.90
44229;DHT22;29904;51.058;5.378;2022-08-27T06:19:29;16.40;99.90
44229;DHT22;29904;51.058;5.378;2022-08-27T06:21:55;16.40;99.90
44229;DHT22;29904;51.058;5.378;2022-08-27T06:24:25;16.40;99.90
44229;DHT22;29904;51.058;5.378;2022-08-27T06:26:50;16.40;99.90
44229;DHT22;29904;51.058;5.378;2022-08-27T06:29:16;16.50;99.90
44229;DHT22;29904;51.058;5.378;2022-08-27T06:31:42;16.50;99.90
44229;DHT22;29904;51.058;5.378;2022-08-27T06:34:09;16.50;99.90
44229;DHT22;29904;51.058;5.378;2022-08-27T06:36:37;16.60;99.90
44229;DHT22;29904;51.058;5.378;2022-08-27T06:39:05;16.70;99.90
44229;DHT22;29904;51.058;5.378;2022-08-27T06:41:32;16.70;99.90
44229;DHT22;29904;51.058;5.378;2022-08-27T06:43:57;16.80;99.90
44229;DHT22;29904;51.058;5.378;2022-08-27T06:46:25;16.90;99.90
44229;DHT22;29904;51.058;5.378;2022-08-27T06:48:57;17.00;99.90
44229;DHT22;29904;51.058;5.378;2022-08-27T06:51:26;17.00;99.90
44229;DHT22;29904;51.058;5.378;2022-08-27T06:53:54;17.00;99.90
44229;DHT22;29904;51.058;5.378;2022-08-27T06:56:21;17.10;99.90
44229;DHT22;29904;51.058;5.378;2022-08-27T06:58:53;17.10;99.90
44229;DHT22;29904;51.058;5.378;2022-08-27T07:01:25;17.30;99.90
44229;DHT22;29904;51.058;5.378;2022-08-27T07:03:56;17.30;99.90
44229;DHT22;29904;51.058;5.378;2022-08-27T07:06:24;17.30;99.90
44229;DHT22;29904;51.058;5.378;2022-08-27T07:08:50;17.40;99.90
44229;DHT22;29904;51.058;5.378;2022-08-27T07:11:17;17.40;99.90
44229;DHT22;29904;51.058;5.378;2022-08-27T07:13:45;17.50;99.90
44229;DHT22;29904;51.058;5.378;2022-08-27T07:16:18;17.60;99.90
44229;DHT22;29904;51.058;5.378;2022-08-27T07:18:47;17.60;99.90
44229;DHT22;29904;51.058;5.378;2022-08-27T07:21:13;17.70;99.90
44229;DHT22;29904;51.058;5.378;2022-08-27T07:23:41;17.80;99.90
44229;DHT22;29904;51.058;5.378;2022-08-27T07:26:12;17.80;99.90
44229;DHT22;29904;51.058;5.378;2022-08-27T07:28:39;17.90;99.90
44229;DHT22;29904;51.058;5.378;2022-08-27T07:31:09;17.90;99.90
44229;DHT22;29904;51.058;5.378;2022-08-27T07:33:36;17.90;99.90
44229;DHT22;29904;51.058;5.378;2022-08-27T07:36:03;18.00;99.90
44229;DHT22;29904;51.058;5.378;2022-08-27T07:38:29;18.00;99.90
44229;DHT22;29904;51.058;5.378;2022-08-27T07:40:55;18.10;99.90
44229;DHT22;29904;51.058;5.378;2022-08-27T07:43:21;18.10;99.90
44229;DHT22;29904;51.058;5.378;2022-08-27T07:46:05;18.20;99.90
44229;DHT22;29904;51.058;5.378;2022-08-27T07:48:32;18.40;99.90
44229;DHT22;29904;51.058;5.378;2022-08-27T07:51:00;18.40;99.90
44229;DHT22;29904;51.058;5.378;2022-08-27T07:53:32;18.40;99.90
44229;DHT22;29904;51.058;5.378;2022-08-27T07:56:03;18.40;99.90
44229;DHT22;29904;51.058;5.378;2022-08-27T07:58:29;18.50;99.90
44229;DHT22;29904;51.058;5.378;2022-08-27T08:00:57;18.50;99.90
44229;DHT22;29904;51.058;5.378;2022-08-27T08:03:23;18.50;99.90
44229;DHT22;29904;51.058;5.378;2022-08-27T08:05:48;18.60;99.90
44229;DHT22;29904;51.058;5.378;2022-08-27T08:08:19;18.70;99.90
44229;DHT22;29904;51.058;5.378;2022-08-27T08:10:47;18.80;99.90
44229;DHT22;29904;51.058;5.378;2022-08-27T08:13:14;19.00;99.90
44229;DHT22;29904;51.058;5.378;2022-08-27T08:15:42;19.00;99.90
44229;DHT22;29904;51.058;5.378;2022-08-27T08:18:08;19.00;99.90
44229;DHT22;29904;51.058;5.378;2022-08-27T08:20:34;19.00;99.90
44229;DHT22;29904;51.058;5.378;2022-08-27T08:23:00;19.00;99.90
44229;DHT22;29904;51.058;5.378;2022-08-27T08:25:29;19.00;99.90
44229;DHT22;29904;51.058;5.378;2022-08-27T08:27:54;19.00;99.90
44229;DHT22;29904;51.058;5.378;2022-08-27T08:30:21;19.00;99.90
44229;DHT22;29904;51.058;5.378;2022-08-27T08:32:49;19.10;99.90
44229;DHT22;29904;51.058;5.378;2022-08-27T08:35:15;19.10;99.90
44229;DHT22;29904;51.058;5.378;2022-08-27T08:37:42;19.20;99.90
44229;DHT22;29904;51.058;5.378;2022-08-27T08:40:18;19.40;99.90
44229;DHT22;29904;51.058;5.378;2022-08-27T08:42:50;19.30;99.90
44229;DHT22;29904;51.058;5.378;2022-08-27T08:45:22;19.40;99.90
44229;DHT22;29904;51.058;5.378;2022-08-27T08:48:00;19.50;99.90
44229;DHT22;29904;51.058;5.378;2022-08-27T08:50:32;19.50;99.90
44229;DHT22;29904;51.058;5.378;2022-08-27T08:53:37;19.50;99.90
44229;DHT22;29904;51.058;5.378;2022-08-27T08:56:11;19.60;99.90
44229;DHT22;29904;51.058;5.378;2022-08-27T08:58:57;19.60;99.90
44229;DHT22;29904;51.058;5.378;2022-08-27T09:01:25;19.50;99.90
44229;DHT22;29904;51.058;5.378;2022-08-27T09:03:58;19.50;99.90
44229;DHT22;29904;51.058;5.378;2022-08-27T09:12:00;20.10;99.90
44229;DHT22;29904;51.058;5.378;2022-08-27T09:17:12;20.30;99.90
44229;DHT22;29904;51.058;5.378;2022-08-27T09:19:38;20.50;99.90
44229;DHT22;29904;51.058;5.378;2022-08-27T09:22:24;20.70;99.90
44229;DHT22;29904;51.058;5.378;2022-08-27T09:25:18;20.90;99.90
44229;DHT22;29904;51.058;5.378;2022-08-27T09:27:46;21.10;99.90
44229;DHT22;29904;51.058;5.378;2022-08-27T09:30:20;21.30;99.90
44229;DHT22;29904;51.058;5.378;2022-08-27T09:33:02;21.30;99.90
44229;DHT22;29904;51.058;5.378;2022-08-27T09:35:42;21.30;99.90
44229;DHT22;29904;51.058;5.378;2022-08-27T09:38:09;21.30;99.90
44229;DHT22;29904;51.058;5.378;2022-08-27T09:40:41;21.10;99.90
44229;DHT22;29904;51.058;5.378;2022-08-27T09:45:50;21.60;99.90
44229;DHT22;29904;51.058;5.378;2022-08-27T09:48:23;21.70;99.90
44229;DHT22;29904;51.058;5.378;2022-08-27T09:51:01;21.90;99.90
44229;DHT22;29904;51.058;5.378;2022-08-27T09:56:04;22.00;99.90
44229;DHT22;29904;51.058;5.378;2022-08-27T10:01:22;22.50;99.90
44229;DHT22;29904;51.058;5.378;2022-08-27T10:03:48;22.70;99.90
44229;DHT22;29904;51.058;5.378;2022-08-27T10:06:28;22.60;99.90
44229;DHT22;29904;51.058;5.378;2022-08-27T10:09:04;22.60;99.90
44229;DHT22;29904;51.058;5.378;2022-08-27T10:11:43;22.60;99.90
44229;DHT22;29904;51.058;5.378;2022-08-27T10:16:49;22.20;99.90
44229;DHT22;29904;51.058;5.378;2022-08-27T10:22:16;22.80;99.90
44229;DHT22;29904;51.058;5.378;2022-08-27T10:30:05;22.80;99.90
44229;DHT22;29904;51.058;5.378;2022-08-27T10:32:51;22.70;99.90
44229;DHT22;29904;51.058;5.378;2022-08-27T10:35:27;22.90;99.90
44229;DHT22;29904;51.058;5.378;2022-08-27T10:38:54;22.80;99.90
44229;DHT22;29904;51.058;5.378;2022-08-27T10:41:16;22.90;99.90
44229;DHT22;29904;51.058;5.378;2022-08-27T10:49:34;23.00;99.90
44229;DHT22;29904;51.058;5.378;2022-08-27T10:52:24;23.00;99.90
44229;DHT22;29904;51.058;5.378;2022-08-27T10:55:19;23.00;99.90
44229;DHT22;29904;51.058;5.378;2022-08-27T11:00:22;23.00;99.90
44229;DHT22;29904;51.058;5.378;2022-08-27T11:02:52;23.10;99.90
44229;DHT22;29904;51.058;5.378;2022-08-27T11:05:32;23.00;99.90
44229;DHT22;29904;51.058;5.378;2022-08-27T11:08:06;23.00;99.90
44229;DHT22;29904;51.058;5.378;2022-08-27T11:10:53;23.10;99.90
44229;DHT22;29904;51.058;5.378;2022-08-27T11:13:30;23.20;99.90
44229;DHT22;29904;51.058;5.378;2022-08-27T11:15:58;23.30;99.90
44229;DHT22;29904;51.058;5.378;2022-08-27T11:19:21;23.50;99.90
44229;DHT22;29904;51.058;5.378;2022-08-27T11:22:04;23.70;99.90
44229;DHT22;29904;51.058;5.378;2022-08-27T11:24:51;23.80;99.90
44229;DHT22;29904;51.058;5.378;2022-08-27T11:27:23;23.90;99.90
44229;DHT22;29904;51.058;5.378;2022-08-27T11:30:10;23.80;99.90
44229;DHT22;29904;51.058;5.378;2022-08-27T11:33:08;23.80;99.90
44229;DHT22;29904;51.058;5.378;2022-08-27T11:38:31;23.70;99.90
44229;DHT22;29904;51.058;5.378;2022-08-27T11:41:33;23.70;99.90
44229;DHT22;29904;51.058;5.378;2022-08-27T11:44:05;23.90;99.90
44229;DHT22;29904;51.058;5.378;2022-08-27T11:46:45;24.00;99.90
44229;DHT22;29904;51.058;5.378;2022-08-27T11:49:22;24.00;99.90
44229;DHT22;29904;51.058;5.378;2022-08-27T11:51:57;23.80;99.90
44229;DHT22;29904;51.058;5.378;2022-08-27T11:54:51;23.80;99.90
44229;DHT22;29904;51.058;5.378;2022-08-27T11:57:31;23.70;99.90
44229;DHT22;29904;51.058;5.378;2022-08-27T12:00:20;23.60;99.90
44229;DHT22;29904;51.058;5.378;2022-08-27T12:05:44;23.50;99.90
44229;DHT22;29904;51.058;5.378;2022-08-27T12:13:36;23.80;99.90
44229;DHT22;29904;51.058;5.378;2022-08-27T12:19:08;23.70;99.90
44229;DHT22;29904;51.058;5.378;2022-08-27T12:27:12;24.00;99.90
44229;DHT22;29904;51.058;5.378;2022-08-27T12:32:26;24.40;99.90
44229;DHT22;29904;51.058;5.378;2022-08-27T12:37:32;24.70;99.90
44229;DHT22;29904;51.058;5.378;2022-08-27T12:40:01;24.40;99.90
44229;DHT22;29904;51.058;5.378;2022-08-27T12:42:28;24.40;99.90
44229;DHT22;29904;51.058;5.378;2022-08-27T12:44:56;24.40;99.90
44229;DHT22;29904;51.058;5.378;2022-08-27T12:47:22;24.20;99.90
44229;DHT22;29904;51.058;5.378;2022-08-27T12:49:58;24.00;99.90
44229;DHT22;29904;51.058;5.378;2022-08-27T12:58:11;24.20;99.90
44229;DHT22;29904;51.058;5.378;2022-08-27T13:01:00;24.30;99.90
44229;DHT22;29904;51.058;5.378;2022-08-27T13:03:42;24.20;99.90
44229;DHT22;29904;51.058;5.378;2022-08-27T13:06:19;24.10;99.90
44229;DHT22;29904;51.058;5.378;2022-08-27T13:08:52;24.30;99.90
44229;DHT22;29904;51.058;5.378;2022-08-27T13:11:20;24.40;99.90
44229;DHT22;29904;51.058;5.378;2022-08-27T13:13:48;24.50;99.90
44229;DHT22;29904;51.058;5.378;2022-08-27T13:16:20;24.60;99.90
44229;DHT22;29904;51.058;5.378;2022-08-27T13:18:48;24.90;99.90
44229;DHT22;29904;51.058;5.378;2022-08-27T13:21:27;25.00;99.90
44229;DHT22;29904;51.058;5.378;2022-08-27T13:23:56;25.10;99.90
44229;DHT22;29904;51.058;5.378;2022-08-27T13:26:24;25.10;99.90
44229;DHT22;29904;51.058;5.378;2022-08-27T13:28:51;25.00;99.90
44229;DHT22;29904;51.058;5.378;2022-08-27T13:31:20;24.90;99.90
44229;DHT22;29904;51.058;5.378;2022-08-27T13:33:46;24.90;99.90
44229;DHT22;29904;51.058;5.378;2022-08-27T13:36:24;24.80;99.90
44229;DHT22;29904;51.058;5.378;2022-08-27T13:38:49;24.70;99.90
44229;DHT22;29904;51.058;5.378;2022-08-27T13:41:42;24.60;99.90
44229;DHT22;29904;51.058;5.378;2022-08-27T13:44:14;24.60;99.90
44229;DHT22;29904;51.058;5.378;2022-08-27T13:46:47;24.50;99.90
44229;DHT22;29904;51.058;5.378;2022-08-27T13:49:20;24.70;99.90
44229;DHT22;29904;51.058;5.378;2022-08-27T13:51:48;24.70;99.90
44229;DHT22;29904;51.058;5.378;2022-08-27T13:54:16;24.50;99.90
44229;DHT22;29904;51.058;5.378;2022-08-27T14:04:38;23.90;99.90
44229;DHT22;29904;51.058;5.378;2022-08-27T14:07:41;23.90;99.90
44229;DHT22;29904;51.058;5.378;2022-08-27T14:10:02;23.90;99.90
44229;DHT22;29904;51.058;5.378;2022-08-27T14:12:39;23.80;99.90
44229;DHT22;29904;51.058;5.378;2022-08-27T14:17:43;23.90;99.90
44229;DHT22;29904;51.058;5.378;2022-08-27T14:20:11;23.80;99.90
44229;DHT22;29904;51.058;5.378;2022-08-27T14:22:41;23.90;99.90
44229;DHT22;29904;51.058;5.378;2022-08-27T14:25:07;24.00;99.90
44229;DHT22;29904;51.058;5.378;2022-08-27T14:27:35;24.00;99.90
44229;DHT22;29904;51.058;5.378;2022-08-27T14:30:05;24.00;99.90
44229;DHT22;29904;51.058;5.378;2022-08-27T14:32:31;24.00;99.90
44229;DHT22;29904;51.058;5.378;2022-08-27T14:34:58;23.90;99.90
44229;DHT22;29904;51.058;5.378;2022-08-27T14:37:24;23.80;99.90
44229;DHT22;29904;51.058;5.378;2022-08-27T14:39:49;23.80;99.90
44229;DHT22;29904;51.058;5.378;2022-08-27T14:42:15;23.80;99.90
44229;DHT22;29904;51.058;5.378;2022-08-27T14:44:44;23.80;99.90
44229;DHT22;29904;51.058;5.378;2022-08-27T14:47:10;23.90;99.90
44229;DHT22;29904;51.058;5.378;2022-08-27T14:49:39;24.00;99.90
44229;DHT22;29904;51.058;5.378;2022-08-27T14:52:07;24.00;99.90
44229;DHT22;29904;51.058;5.378;2022-08-27T14:54:34;23.80;99.90
44229;DHT22;29904;51.058;5.378;2022-08-27T14:57:01;23.50;99.90
44229;DHT22;29904;51.058;5.378;2022-08-27T14:59:29;23.50;99.90
44229;DHT22;29904;51.058;5.378;2022-08-27T15:01:57;23.60;99.90
44229;DHT22;29904;51.058;5.378;2022-08-27T15:04:24;23.70;99.90
44229;DHT22;29904;51.058;5.378;2022-08-27T15:06:51;23.70;99.90
44229;DHT22;29904;51.058;5.378;2022-08-27T15:09:16;23.80;99.90
44229;DHT22;29904;51.058;5.378;2022-08-27T15:11:42;23.80;99.90
44229;DHT22;29904;51.058;5.378;2022-08-27T15:14:18;23.70;99.90
44229;DHT22;29904;51.058;5.378;2022-08-27T15:16:45;23.70;99.90
44229;DHT22;29904;51.058;5.378;2022-08-27T15:19:13;23.60;99.90
44229;DHT22;29904;51.058;5.378;2022-08-27T15:21:40;23.50;99.90
44229;DHT22;29904;51.058;5.378;2022-08-27T15:26:48;23.50;99.90
44229;DHT22;29904;51.058;5.378;2022-08-27T15:29:14;23.50;99.90
44229;DHT22;29904;51.058;5.378;2022-08-27T15:31:42;23.50;99.90
44229;DHT22;29904;51.058;5.378;2022-08-27T15:34:08;23.50;99.90
44229;DHT22;29904;51.058;5.378;2022-08-27T15:36:35;23.50;99.90
44229;DHT22;29904;51.058;5.378;2022-08-27T15:39:03;23.50;99.90
44229;DHT22;29904;51.058;5.378;2022-08-27T15:41:30;23.40;99.90
44229;DHT22;29904;51.058;5.378;2022-08-27T15:43:56;23.40;99.90
44229;DHT22;29904;51.058;5.378;2022-08-27T15:46:22;23.30;99.90
44229;DHT22;29904;51.058;5.378;2022-08-27T15:48:50;23.30;99.90
44229;DHT22;29904;51.058;5.378;2022-08-27T15:51:22;23.40;99.90
44229;DHT22;29904;51.058;5.378;2022-08-27T15:53:49;23.40;99.90
44229;DHT22;29904;51.058;5.378;2022-08-27T15:56:15;23.40;99.90
44229;DHT22;29904;51.058;5.378;2022-08-27T15:58:41;23.30;99.90
44229;DHT22;29904;51.058;5.378;2022-08-27T16:01:11;23.30;99.90
44229;DHT22;29904;51.058;5.378;2022-08-27T16:03:37;23.30;99.90
44229;DHT22;29904;51.058;5.378;2022-08-27T16:06:05;23.30;99.90
44229;DHT22;29904;51.058;5.378;2022-08-27T16:08:33;23.30;99.90
44229;DHT22;29904;51.058;5.378;2022-08-27T16:11:00;23.20;99.90
44229;DHT22;29904;51.058;5.378;2022-08-27T16:13:25;23.30;99.90
44229;DHT22;29904;51.058;5.378;2022-08-27T16:15:52;23.30;99.90
44229;DHT22;29904;51.058;5.378;2022-08-27T16:18:24;23.30;99.90
44229;DHT22;29904;51.058;5.378;2022-08-27T16:20:51;23.30;99.90
44229;DHT22;29904;51.058;5.378;2022-08-27T16:23:19;23.10;99.90
44229;DHT22;29904;51.058;5.378;2022-08-27T16:25:45;23.10;99.90
44229;DHT22;29904;51.058;5.378;2022-08-27T16:28:11;23.00;99.90
44229;DHT22;29904;51.058;5.378;2022-08-27T16:30:38;22.90;99.90
44229;DHT22;29904;51.058;5.378;2022-08-27T16:33:04;22.90;99.90
44229;DHT22;29904;51.058;5.378;2022-08-27T16:35:29;22.80;99.90
44229;DHT22;29904;51.058;5.378;2022-08-27T16:37:56;22.80;99.90
44229;DHT22;29904;51.058;5.378;2022-08-27T16:40:22;22.80;99.90
44229;DHT22;29904;51.058;5.378;2022-08-27T16:42:50;22.70;99.90
44229;DHT22;29904;51.058;5.378;2022-08-27T16:45:18;22.70;99.90
44229;DHT22;29904;51.058;5.378;2022-08-27T16:47:46;22.80;99.90
44229;DHT22;29904;51.058;5.378;2022-08-27T16:50:32;22.70;99.90
44229;DHT22;29904;51.058;5.378;2022-08-27T16:53:00;22.70;99.90
44229;DHT22;29904;51.058;5.378;2022-08-27T16:55:27;22.70;99.90
44229;DHT22;29904;51.058;5.378;2022-08-27T16:57:53;22.60;99.90
44229;DHT22;29904;51.058;5.378;2022-08-27T17:00:19;22.60;99.90
44229;DHT22;29904;51.058;5.378;2022-08-27T17:02:44;22.60;99.90
44229;DHT22;29904;51.058;5.378;2022-08-27T17:05:12;22.50;99.90
44229;DHT22;29904;51.058;5.378;2022-08-27T17:07:38;22.50;99.90
44229;DHT22;29904;51.058;5.378;2022-08-27T17:10:04;22.40;99.90